createdAt,value
2023-08-05T00:01:35.755Z,100012.55
2023-08-05T00:06:38.884Z,100009.65
2023-08-05T00:11:42.155Z,100007.42
2023-08-05T00:16:45.188Z,100000.08
2023-08-05T00:21:48.060Z,99992.14
2023-08-05T00:26:51.363Z,99987.97
2023-08-05T00:31:54.772Z,99988.28
2023-08-05T00:36:57.829Z,99984.22
2023-08-05T00:42:00.794Z,99980.50
2023-08-05T00:47:03.842Z,99973.14
2023-08-05T00:52:08.925Z,99961.91
2023-08-05T00:57:14.225Z,99957.88
2023-08-05T01:02:17.144Z,99957.10
2023-08-05T01:07:21.703Z,99953.86
2023-08-05T01:12:24.781Z,99955.81
2023-08-05T01:17:28.437Z,99956.40
2023-08-05T01:22:39.408Z,99954.41
2023-08-05T01:27:43.416Z,99955.96
2023-08-05T01:32:46.763Z,99948.66
2023-08-05T01:37:50.577Z,99948.17
2023-08-05T01:42:53.574Z,99943.28
2023-08-05T01:47:56.618Z,99951.41
2023-08-05T01:52:59.786Z,99956.23
2023-08-05T01:58:02.803Z,99954.85
2023-08-05T02:03:06.290Z,99954.86
2023-08-05T02:08:09.971Z,99953.77
2023-08-05T02:13:13.062Z,99957.69
2023-08-05T02:18:16.425Z,99955.13
2023-08-05T02:23:19.480Z,99955.14
2023-08-05T02:28:22.736Z,99967.73
2023-08-05T02:33:25.736Z,99969.08
2023-08-05T02:38:28.787Z,99967.03
2023-08-05T02:43:31.738Z,99965.92
2023-08-05T02:48:35.054Z,99967.48
2023-08-05T02:53:38.124Z,99970.90
2023-08-05T02:58:41.264Z,99977.12
2023-08-05T03:03:44.306Z,99992.83
2023-08-05T03:08:47.460Z,99997.08
2023-08-05T03:13:50.423Z,100005.30
2023-08-05T03:18:53.422Z,100016.05
2023-08-05T03:23:56.472Z,100018.18
2023-08-05T03:28:59.487Z,100016.23
2023-08-05T03:34:02.479Z,100005.55
2023-08-05T03:39:05.632Z,99992.11
2023-08-05T03:44:09.006Z,99977.55
2023-08-05T03:49:12.014Z,99990.16
2023-08-05T03:54:15.639Z,100006.52
2023-08-05T03:59:19.463Z,100010.05
2023-08-05T04:04:22.673Z,100025.13
2023-08-05T04:09:26.555Z,100011.89
2023-08-05T04:14:29.682Z,99997.42
2023-08-05T04:19:34.332Z,99989.66
2023-08-05T04:24:38.040Z,99986.02
2023-08-05T04:29:41.143Z,99992.27
2023-08-05T04:34:45.964Z,100003.34
2023-08-05T04:39:50.026Z,100013.34
2023-08-05T04:44:53.413Z,100018.79
2023-08-05T04:49:56.397Z,100010.89
2023-08-05T04:55:10.381Z,100016.19
2023-08-05T05:00:14.292Z,100023.98
2023-08-05T05:05:17.869Z,100034.85
2023-08-05T05:10:20.870Z,100037.45
2023-08-05T05:15:24.032Z,100036.91
2023-08-05T05:20:27.036Z,100046.85
2023-08-05T05:25:29.985Z,100049.66
2023-08-05T05:30:33.214Z,100041.64
2023-08-05T05:35:36.357Z,100036.06
2023-08-05T05:40:42.579Z,100035.14
2023-08-05T05:45:48.005Z,100027.84
2023-08-05T05:50:54.189Z,100027.48
2023-08-05T05:55:57.193Z,100018.66
2023-08-05T06:01:01.758Z,100016.80
2023-08-05T06:06:04.904Z,100028.10
2023-08-05T06:11:08.750Z,100020.73
2023-08-05T06:16:11.765Z,100015.65
2023-08-05T06:21:14.893Z,100013.44
2023-08-05T06:26:17.995Z,100013.69
2023-08-05T06:31:21.424Z,100011.08
2023-08-05T06:36:24.453Z,100010.61
2023-08-05T06:41:27.528Z,100008.40
2023-08-05T06:46:33.005Z,100005.39
2023-08-05T06:51:36.108Z,99998.70
2023-08-05T06:56:39.210Z,99998.52
2023-08-05T07:01:42.200Z,100002.05
2023-08-05T07:06:45.796Z,99991.98
2023-08-05T07:11:49.144Z,99994.09
2023-08-05T07:16:52.787Z,100000.08
2023-08-05T07:21:55.932Z,100002.34
2023-08-05T07:26:59.037Z,100002.71
2023-08-05T07:32:03.587Z,99997.23
2023-08-05T07:37:07.056Z,99992.89
2023-08-05T07:42:10.678Z,99988.13
2023-08-05T07:47:13.991Z,99992.45
2023-08-05T07:52:18.917Z,99991.41
2023-08-05T07:57:22.361Z,99984.16
2023-08-05T08:02:26.478Z,99977.75
2023-08-05T08:07:29.705Z,99973.30
2023-08-05T08:12:32.682Z,99970.77
2023-08-05T08:17:36.730Z,99960.07
2023-08-05T08:22:41.669Z,99955.88
2023-08-05T08:27:44.663Z,99955.83
2023-08-05T08:32:47.888Z,99954.41
2023-08-05T08:37:51.962Z,99959.84
2023-08-05T08:42:55.649Z,99961.27
2023-08-05T08:48:00.075Z,99958.73
2023-08-05T08:53:03.159Z,99967.29
2023-08-05T08:58:06.723Z,99981.39
2023-08-05T09:03:11.343Z,99990.05
2023-08-05T09:08:14.808Z,99986.81
2023-08-05T09:13:18.909Z,99984.35
2023-08-05T09:18:22.056Z,99983.05
2023-08-05T09:23:25.070Z,99974.09
2023-08-05T09:28:32.868Z,99970.80
2023-08-05T09:33:36.395Z,99970.98
2023-08-05T09:38:46.793Z,99967.27
2023-08-05T09:43:51.014Z,99956.50
2023-08-05T09:48:56.070Z,99945.99
2023-08-05T09:54:03.377Z,99941.55
2023-08-05T09:59:10.812Z,99934.52
2023-08-05T10:04:17.791Z,99929.15
2023-08-05T10:09:21.807Z,99930.15
2023-08-05T10:14:29.526Z,99929.45
2023-08-05T10:19:32.810Z,99915.56
2023-08-05T10:24:53.049Z,99910.71
2023-08-05T10:29:59.031Z,99908.20
2023-08-05T10:35:43.622Z,99905.04
2023-08-05T10:40:53.943Z,99905.00
2023-08-05T10:45:57.360Z,99905.71
2023-08-05T10:51:07.889Z,99904.36
2023-08-05T10:56:14.668Z,99898.65
2023-08-05T11:01:18.951Z,99897.10
2023-08-05T11:06:24.993Z,99890.77
2023-08-05T11:11:28.774Z,99882.45
2023-08-05T11:16:31.854Z,99877.56
2023-08-05T11:21:36.796Z,99871.61
2023-08-05T11:26:39.900Z,99868.38
2023-08-05T11:31:53.073Z,99860.67
2023-08-05T11:36:57.487Z,99860.66
2023-08-05T11:42:02.650Z,99859.98
2023-08-05T11:47:08.039Z,99861.95
2023-08-05T11:52:13.156Z,99864.17
2023-08-05T11:57:20.682Z,99864.73
2023-08-05T12:02:26.173Z,99863.49
2023-08-05T12:07:30.778Z,99855.88
2023-08-05T12:12:34.404Z,99847.89
2023-08-05T12:17:37.525Z,99843.94
2023-08-05T12:22:40.620Z,99841.36
2023-08-05T12:27:44.140Z,99830.67
2023-08-05T12:32:47.973Z,99831.85
2023-08-05T12:37:51.174Z,99833.30
2023-08-05T12:42:55.823Z,99829.94
2023-08-05T12:47:58.872Z,99830.66
2023-08-05T12:53:01.948Z,99831.17
2023-08-05T12:58:04.801Z,99818.14
2023-08-05T13:03:08.114Z,99802.91
2023-08-05T13:08:13.122Z,99799.55
2023-08-05T13:13:16.116Z,99805.83
2023-08-05T13:18:19.118Z,99805.45
2023-08-05T13:23:22.123Z,99815.95
2023-08-05T13:28:25.239Z,99819.67
2023-08-05T13:33:28.822Z,99821.11
2023-08-05T13:38:31.766Z,99821.79
2023-08-05T13:43:34.874Z,99821.34
2023-08-05T13:48:39.307Z,99826.70
2023-08-05T13:53:42.318Z,99826.41
2023-08-05T13:58:45.322Z,99824.98
2023-08-05T14:03:48.695Z,99808.98
2023-08-05T14:08:51.952Z,99804.14
2023-08-05T14:13:55.069Z,99804.92
2023-08-05T14:18:58.173Z,99802.80
2023-08-05T14:24:01.179Z,99796.07
2023-08-05T14:29:04.084Z,99796.95
2023-08-05T14:34:06.999Z,99802.94
2023-08-05T14:39:09.997Z,99800.00
2023-08-05T14:44:13.526Z,99793.69
2023-08-05T14:49:16.472Z,99789.48
2023-08-05T14:54:19.433Z,99788.14
2023-08-05T14:59:22.536Z,99789.96
2023-08-05T15:04:25.544Z,99787.95
2023-08-05T15:09:28.445Z,99790.20
2023-08-05T15:14:31.456Z,99788.91
2023-08-05T15:19:34.471Z,99768.74
2023-08-05T15:24:38.388Z,99759.65
2023-08-05T15:29:41.619Z,99754.02
2023-08-05T15:34:44.622Z,99743.36
2023-08-05T15:39:47.731Z,99746.04
2023-08-05T15:44:50.626Z,99739.25
2023-08-05T15:49:53.627Z,99744.20
2023-08-05T15:54:56.535Z,99748.23
2023-08-05T15:59:59.437Z,99751.00
2023-08-05T16:05:02.477Z,99754.69
2023-08-05T16:10:07.249Z,99753.78
2023-08-05T16:15:11.121Z,99752.95
2023-08-05T16:20:14.573Z,99751.73
2023-08-05T16:25:17.646Z,99755.50
2023-08-05T16:30:20.567Z,99748.73
2023-08-05T16:35:23.664Z,99738.89
2023-08-05T16:40:26.673Z,99742.98
2023-08-05T16:45:30.188Z,99735.14
2023-08-05T16:50:33.199Z,99733.61
2023-08-05T16:55:36.610Z,99735.28
2023-08-05T17:00:39.763Z,99725.98
2023-08-05T17:05:42.934Z,99728.18
2023-08-05T17:10:46.042Z,99722.57
2023-08-05T17:15:49.668Z,99715.84
2023-08-05T17:20:58.008Z,99710.98
2023-08-05T17:26:01.106Z,99698.02
2023-08-05T17:31:04.827Z,99689.58
2023-08-05T17:36:07.832Z,99693.37
2023-08-05T17:41:11.356Z,99697.41
2023-08-05T17:46:14.399Z,99689.09
2023-08-05T17:51:17.671Z,99694.70
2023-08-05T17:56:20.678Z,99701.45
2023-08-05T18:01:24.026Z,99699.79
2023-08-05T18:06:27.102Z,99692.52
2023-08-05T18:11:30.315Z,99686.22
2023-08-05T18:16:33.399Z,99685.16
2023-08-05T18:21:37.731Z,99695.91
2023-08-05T18:26:41.082Z,99690.30
2023-08-05T18:31:45.368Z,99674.48
2023-08-05T18:36:48.422Z,99674.05
2023-08-05T18:41:52.831Z,99664.26
2023-08-05T18:46:56.370Z,99655.80
2023-08-05T18:51:59.298Z,99648.53
2023-08-05T18:57:02.193Z,99641.38
2023-08-05T19:02:06.039Z,99647.26
2023-08-05T19:07:09.042Z,99636.61
2023-08-05T19:12:12.853Z,99622.77
2023-08-05T19:17:15.957Z,99615.97
2023-08-05T19:22:18.960Z,99619.02
2023-08-05T19:27:28.149Z,99626.04
2023-08-05T19:32:35.898Z,99637.88
2023-08-05T19:37:39.043Z,99634.45
2023-08-05T19:42:41.986Z,99630.88
2023-08-05T19:47:45.604Z,99633.46
2023-08-05T19:52:54.007Z,99633.65
2023-08-05T19:57:57.419Z,99621.75
2023-08-05T20:03:05.203Z,99618.24
2023-08-05T20:08:09.092Z,99601.92
2023-08-05T20:13:14.212Z,99591.43
2023-08-05T20:18:17.231Z,99592.23
2023-08-05T20:23:28.223Z,99591.19
2023-08-05T20:28:31.846Z,99584.58
2023-08-05T20:33:37.413Z,99571.28
2023-08-05T20:38:41.243Z,99560.30
2023-08-05T20:43:44.861Z,99556.76
2023-08-05T20:48:51.046Z,99550.80
2023-08-05T20:53:54.460Z,99540.52
2023-08-05T20:58:57.467Z,99530.17
2023-08-05T21:04:00.531Z,99523.11
2023-08-05T21:09:03.788Z,99516.33
2023-08-05T21:14:07.316Z,99508.20
2023-08-05T21:19:10.309Z,99502.27
2023-08-05T21:24:13.214Z,99488.55
2023-08-05T21:29:20.332Z,99483.19
2023-08-05T21:34:23.459Z,99482.39
2023-08-05T21:39:26.433Z,99479.00
2023-08-05T21:44:29.446Z,99479.67
2023-08-05T21:49:32.354Z,99474.77
2023-08-05T21:54:35.353Z,99464.05
2023-08-05T21:59:38.669Z,99450.19
2023-08-05T22:04:43.767Z,99449.02
2023-08-05T22:09:46.830Z,99441.79
2023-08-05T22:14:49.753Z,99439.65
2023-08-05T22:19:52.947Z,99432.60
2023-08-05T22:24:56.021Z,99416.44
2023-08-05T22:29:59.689Z,99401.48
2023-08-05T22:35:03.332Z,99394.88
2023-08-05T22:40:07.367Z,99388.48
2023-08-05T22:45:11.065Z,99371.02
2023-08-05T22:50:14.061Z,99349.39
2023-08-05T22:55:17.170Z,99329.03
2023-08-05T23:00:20.291Z,99312.59
2023-08-05T23:05:24.010Z,99323.86
2023-08-05T23:10:32.881Z,99325.14
2023-08-05T23:15:35.986Z,99332.26
2023-08-05T23:20:39.092Z,99332.98
2023-08-05T23:25:42.480Z,99326.83
2023-08-05T23:30:46.547Z,99323.70
2023-08-05T23:35:55.063Z,99319.60
2023-08-05T23:40:57.984Z,99309.55
2023-08-05T23:46:00.892Z,99267.72
2023-08-05T23:51:03.974Z,99240.34
2023-08-05T23:56:06.983Z,99248.27
